sensor_id;sensor_type;location;lat;lon;timestamp;pressure;altitude;pressure_sealevel;temperature;humidity
64862;BME280;62652;42.274;-71.436;2023-03-05T00:00:00;100480.0;;;1.2222222222222239;unknown
64862;BME280;62652;42.274;-71.436;2023-03-05T00:01:04;100480.0;;;1.2222222222222239;unknown
64862;BME280;62652;42.274;-71.436;2023-03-05T00:02:01;100480.0;;;1.2222222222222239;unknown
64862;BME280;62652;42.274;-71.436;2023-03-05T00:03:01;100490.0;;;1.2222222222222239;unknown
64862;BME280;62652;42.274;-71.436;2023-03-05T00:04:03;100490.0;;;1.1111111111111112;unknown
64862;BME280;62652;42.274;-71.436;2023-03-05T00:05:00;100490.0;;;1.2222222222222239;unknown
64862;BME280;62652;42.274;-71.436;2023-03-05T00:06:01;100500.0;;;1.2222222222222239;unknown
64862;BME280;62652;42.274;-71.436;2023-03-05T00:07:00;100500.0;;;0.9999999999999984;unknown
64862;BME280;62652;42.274;-71.436;2023-03-05T00:08:01;100510.0;;;0.9999999999999984;unknown
64862;BME280;62652;42.274;-71.436;2023-03-05T00:09:01;100500.0;;;1.1111111111111112;unknown
64862;BME280;62652;42.274;-71.436;2023-03-05T00:10:01;100500.0;;;1.1111111111111112;unknown
64862;BME280;62652;42.274;-71.436;2023-03-05T00:11:02;100500.0;;;0.9999999999999984;unknown
64862;BME280;62652;42.274;-71.436;2023-03-05T00:12:00;100510.0;;;1.1111111111111112;unknown
64862;BME280;62652;42.274;-71.436;2023-03-05T00:13:01;100500.0;;;1.1111111111111112;unknown
64862;BME280;62652;42.274;-71.436;2023-03-05T00:14:02;100500.0;;;1.1111111111111112;unknown
64862;BME280;62652;42.274;-71.436;2023-03-05T00:15:01;100510.0;;;1.1111111111111112;unknown
64862;BME280;62652;42.274;-71.436;2023-03-05T00:16:02;100510.0;;;0.9999999999999984;unknown
64862;BME280;62652;42.274;-71.436;2023-03-05T00:17:00;100510.0;;;0.9999999999999984;unknown
64862;BME280;62652;42.274;-71.436;2023-03-05T00:18:00;100500.0;;;1.1111111111111112;unknown
64862;BME280;62652;42.274;-71.436;2023-03-05T00:19:01;100510.0;;;0.9999999999999984;unknown
64862;BME280;62652;42.274;-71.436;2023-03-05T00:20:00;100510.0;;;0.9999999999999984;unknown
64862;BME280;62652;42.274;-71.436;2023-03-05T00:21:01;100510.0;;;0.9999999999999984;unknown
64862;BME280;62652;42.274;-71.436;2023-03-05T00:22:00;100510.0;;;0.9999999999999984;unknown
64862;BME280;62652;42.274;-71.436;2023-03-05T00:23:01;100510.0;;;0.9999999999999984;unknown
64862;BME280;62652;42.274;-71.436;2023-03-05T00:24:03;100520.0;;;0.9999999999999984;unknown
64862;BME280;62652;42.274;-71.436;2023-03-05T00:25:00;100520.0;;;0.9999999999999984;unknown
64862;BME280;62652;42.274;-71.436;2023-03-05T00:26:01;100520.0;;;1.1111111111111112;unknown
64862;BME280;62652;42.274;-71.436;2023-03-05T00:27:00;100530.0;;;1.1111111111111112;unknown
64862;BME280;62652;42.274;-71.436;2023-03-05T00:28:01;100520.0;;;0.9999999999999984;unknown
64862;BME280;62652;42.274;-71.436;2023-03-05T00:29:01;100530.0;;;0.9999999999999984;unknown
64862;BME280;62652;42.274;-71.436;2023-03-05T00:30:00;100530.0;;;0.9999999999999984;unknown
64862;BME280;62652;42.274;-71.436;2023-03-05T00:31:01;100530.0;;;0.8888888888888897;unknown
64862;BME280;62652;42.274;-71.436;2023-03-05T00:32:00;100530.0;;;0.9999999999999984;unknown
64862;BME280;62652;42.274;-71.436;2023-03-05T00:33:00;100530.0;;;0.9999999999999984;unknown
64862;BME280;62652;42.274;-71.436;2023-03-05T00:34:02;100530.0;;;0.9999999999999984;unknown
64862;BME280;62652;42.274;-71.436;2023-03-05T00:35:01;100530.0;;;0.9999999999999984;unknown
64862;BME280;62652;42.274;-71.436;2023-03-05T00:36:05;100540.0;;;0.9999999999999984;unknown
64862;BME280;62652;42.274;-71.436;2023-03-05T00:37:01;100530.0;;;0.9999999999999984;unknown
64862;BME280;62652;42.274;-71.436;2023-03-05T00:38:00;100530.0;;;0.8888888888888897;unknown
64862;BME280;62652;42.274;-71.436;2023-03-05T00:39:01;100530.0;;;0.8888888888888897;unknown
64862;BME280;62652;42.274;-71.436;2023-03-05T00:40:00;100530.0;;;0.8888888888888897;unknown
64862;BME280;62652;42.274;-71.436;2023-03-05T00:41:01;100530.0;;;0.8888888888888897;unknown
64862;BME280;62652;42.274;-71.436;2023-03-05T00:42:01;100540.0;;;0.9999999999999984;unknown
64862;BME280;62652;42.274;-71.436;2023-03-05T00:43:01;100530.0;;;0.9999999999999984;unknown
64862;BME280;62652;42.274;-71.436;2023-03-05T00:44:01;100530.0;;;0.8888888888888897;unknown
64862;BME280;62652;42.274;-71.436;2023-03-05T00:45:01;100540.0;;;0.8888888888888897;unknown
64862;BME280;62652;42.274;-71.436;2023-03-05T00:46:01;100540.0;;;0.8888888888888897;unknown
64862;BME280;62652;42.274;-71.436;2023-03-05T00:47:01;100540.0;;;0.8888888888888897;unknown
64862;BME280;62652;42.274;-71.436;2023-03-05T00:48:00;100540.0;;;0.9999999999999984;unknown
64862;BME280;62652;42.274;-71.436;2023-03-05T00:49:01;100540.0;;;0.9999999999999984;unknown
64862;BME280;62652;42.274;-71.436;2023-03-05T00:50:01;100540.0;;;0.9999999999999984;unknown
64862;BME280;62652;42.274;-71.436;2023-03-05T00:51:00;100550.0;;;0.9999999999999984;unknown
64862;BME280;62652;42.274;-71.436;2023-03-05T00:52:00;100550.0;;;0.9999999999999984;unknown
64862;BME280;62652;42.274;-71.436;2023-03-05T00:53:01;100550.0;;;0.9999999999999984;unknown
64862;BME280;62652;42.274;-71.436;2023-03-05T00:54:00;100550.0;;;0.9999999999999984;unknown
64862;BME280;62652;42.274;-71.436;2023-03-05T00:55:00;100550.0;;;0.9999999999999984;unknown
64862;BME280;62652;42.274;-71.436;2023-03-05T00:56:01;100550.0;;;0.9999999999999984;unknown
64862;BME280;62652;42.274;-71.436;2023-03-05T00:57:01;100550.0;;;0.9999999999999984;unknown
64862;BME280;62652;42.274;-71.436;2023-03-05T00:58:01;100560.0;;;0.9999999999999984;unknown
64862;BME280;62652;42.274;-71.436;2023-03-05T00:59:01;100560.0;;;0.9999999999999984;unknown
64862;BME280;62652;42.274;-71.436;2023-03-05T01:00:01;100560.0;;;0.8888888888888897;unknown
64862;BME280;62652;42.274;-71.436;2023-03-05T01:01:01;100570.0;;;0.8888888888888897;unknown
64862;BME280;62652;42.274;-71.436;2023-03-05T01:02:00;100570.0;;;0.9999999999999984;unknown
64862;BME280;62652;42.274;-71.436;2023-03-05T01:03:01;100570.0;;;0.8888888888888897;unknown
64862;BME280;62652;42.274;-71.436;2023-03-05T01:04:00;100570.0;;;0.9999999999999984;unknown
64862;BME280;62652;42.274;-71.436;2023-03-05T01:05:01;100580.0;;;0.8888888888888897;unknown
64862;BME280;62652;42.274;-71.436;2023-03-05T01:06:04;100580.0;;;0.9999999999999984;unknown
64862;BME280;62652;42.274;-71.436;2023-03-05T01:07:01;100580.0;;;0.9999999999999984;unknown
64862;BME280;62652;42.274;-71.436;2023-03-05T01:08:01;100580.0;;;0.9999999999999984;unknown
64862;BME280;62652;42.274;-71.436;2023-03-05T01:09:01;100580.0;;;0.9999999999999984;unknown
64862;BME280;62652;42.274;-71.436;2023-03-05T01:10:01;100580.0;;;0.9999999999999984;unknown
64862;BME280;62652;42.274;-71.436;2023-03-05T01:11:01;100580.0;;;0.9999999999999984;unknown
64862;BME280;62652;42.274;-71.436;2023-03-05T01:12:01;100580.0;;;0.8888888888888897;unknown
64862;BME280;62652;42.274;-71.436;2023-03-05T01:13:01;100580.0;;;0.8888888888888897;unknown
64862;BME280;62652;42.274;-71.436;2023-03-05T01:14:01;100580.0;;;0.8888888888888897;unknown
64862;BME280;62652;42.274;-71.436;2023-03-05T01:15:01;100580.0;;;0.8888888888888897;unknown
64862;BME280;62652;42.274;-71.436;2023-03-05T01:16:00;100580.0;;;0.8888888888888897;unknown
64862;BME280;62652;42.274;-71.436;2023-03-05T01:17:00;100590.0;;;0.8888888888888897;unknown
64862;BME280;62652;42.274;-71.436;2023-03-05T01:18:01;100590.0;;;0.8888888888888897;unknown
64862;BME280;62652;42.274;-71.436;2023-03-05T01:19:00;100590.0;;;0.8888888888888897;unknown
64862;BME280;62652;42.274;-71.436;2023-03-05T01:20:01;100590.0;;;0.8888888888888897;unknown
64862;BME280;62652;42.274;-71.436;2023-03-05T01:21:00;100590.0;;;0.8888888888888897;unknown
64862;BME280;62652;42.274;-71.436;2023-03-05T01:22:01;100590.0;;;0.8888888888888897;unknown
64862;BME280;62652;42.274;-71.436;2023-03-05T01:23:01;100590.0;;;0.8888888888888897;unknown
64862;BME280;62652;42.274;-71.436;2023-03-05T01:24:01;100590.0;;;0.8888888888888897;unknown
64862;BME280;62652;42.274;-71.436;2023-03-05T01:25:00;100590.0;;;0.9999999999999984;unknown
64862;BME280;62652;42.274;-71.436;2023-03-05T01:26:00;100590.0;;;0.8888888888888897;unknown
64862;BME280;62652;42.274;-71.436;2023-03-05T01:27:01;100590.0;;;0.8888888888888897;unknown
64862;BME280;62652;42.274;-71.436;2023-03-05T01:28:01;100590.0;;;0.8888888888888897;unknown
64862;BME280;62652;42.274;-71.436;2023-03-05T01:29:01;100590.0;;;0.8888888888888897;unknown
64862;BME280;62652;42.274;-71.436;2023-03-05T01:30:01;100590.0;;;0.8888888888888897;unknown
64862;BME280;62652;42.274;-71.436;2023-03-05T01:31:01;100590.0;;;0.8888888888888897;unknown
64862;BME280;62652;42.274;-71.436;2023-03-05T01:32:00;100600.0;;;0.8888888888888897;unknown
64862;BME280;62652;42.274;-71.436;2023-03-05T01:33:00;100590.0;;;0.777777777777777;unknown
64862;BME280;62652;42.274;-71.436;2023-03-05T01:34:01;100600.0;;;0.777777777777777;unknown
64862;BME280;62652;42.274;-71.436;2023-03-05T01:35:01;100590.0;;;0.777777777777777;unknown
64862;BME280;62652;42.274;-71.436;2023-03-05T01:36:01;100600.0;;;0.777777777777777;unknown
64862;BME280;62652;42.274;-71.436;2023-03-05T01:37:00;100610.0;;;0.777777777777777;unknown
64862;BME280;62652;42.274;-71.436;2023-03-05T01:38:00;100610.0;;;0.777777777777777;unknown
64862;BME280;62652;42.274;-71.436;2023-03-05T01:39:00;100610.0;;;0.8888888888888897;unknown
64862;BME280;62652;42.274;-71.436;2023-03-05T01:40:01;100610.0;;;0.8888888888888897;unknown
64862;BME280;62652;42.274;-71.436;2023-03-05T01:41:01;100610.0;;;0.8888888888888897;unknown
64862;BME280;62652;42.274;-71.436;2023-03-05T01:42:01;100610.0;;;0.8888888888888897;unknown
64862;BME280;62652;42.274;-71.436;2023-03-05T01:44:01;100610.0;;;0.8888888888888897;unknown
64862;BME280;62652;42.274;-71.436;2023-03-05T01:45:04;100610.0;;;0.8888888888888897;unknown
64862;BME280;62652;42.274;-71.436;2023-03-05T01:46:20;100620.0;;;0.8888888888888897;unknown
64862;BME280;62652;42.274;-71.436;2023-03-05T01:47:01;100620.0;;;0.8888888888888897;unknown
64862;BME280;62652;42.274;-71.436;2023-03-05T01:48:01;100620.0;;;0.8888888888888897;unknown
64862;BME280;62652;42.274;-71.436;2023-03-05T01:49:03;100630.0;;;0.8888888888888897;unknown
64862;BME280;62652;42.274;-71.436;2023-03-05T01:50:01;100630.0;;;0.8888888888888897;unknown
64862;BME280;62652;42.274;-71.436;2023-03-05T01:51:00;100630.0;;;0.8888888888888897;unknown
64862;BME280;62652;42.274;-71.436;2023-03-05T01:52:04;100640.0;;;0.8888888888888897;unknown
64862;BME280;62652;42.274;-71.436;2023-03-05T01:53:03;100640.0;;;0.8888888888888897;unknown
64862;BME280;62652;42.274;-71.436;2023-03-05T01:54:01;100640.0;;;0.8888888888888897;unknown
64862;BME280;62652;42.274;-71.436;2023-03-05T01:55:04;100650.0;;;0.8888888888888897;unknown
64862;BME280;62652;42.274;-71.436;2023-03-05T01:56:01;100650.0;;;0.777777777777777;unknown
64862;BME280;62652;42.274;-71.436;2023-03-05T01:57:06;100650.0;;;0.777777777777777;unknown
64862;BME280;62652;42.274;-71.436;2023-03-05T01:58:03;100650.0;;;0.777777777777777;unknown
64862;BME280;62652;42.274;-71.436;2023-03-05T01:59:01;100660.0;;;0.777777777777777;unknown
64862;BME280;62652;42.274;-71.436;2023-03-05T02:00:07;100660.0;;;0.777777777777777;unknown
64862;BME280;62652;42.274;-71.436;2023-03-05T02:01:01;100670.0;;;0.777777777777777;unknown
64862;BME280;62652;42.274;-71.436;2023-03-05T02:02:01;100660.0;;;0.777777777777777;unknown
64862;BME280;62652;42.274;-71.436;2023-03-05T02:03:03;100660.0;;;0.777777777777777;unknown
64862;BME280;62652;42.274;-71.436;2023-03-05T02:04:01;100660.0;;;0.777777777777777;unknown
64862;BME280;62652;42.274;-71.436;2023-03-05T02:05:04;100670.0;;;0.777777777777777;unknown
64862;BME280;62652;42.274;-71.436;2023-03-05T02:06:01;100670.0;;;0.777777777777777;unknown
64862;BME280;62652;42.274;-71.436;2023-03-05T02:07:01;100670.0;;;0.777777777777777;unknown
64862;BME280;62652;42.274;-71.436;2023-03-05T02:08:03;100680.0;;;0.8888888888888897;unknown
64862;BME280;62652;42.274;-71.436;2023-03-05T02:09:01;100680.0;;;0.777777777777777;unknown
64862;BME280;62652;42.274;-71.436;2023-03-05T02:10:01;100680.0;;;0.8888888888888897;unknown
64862;BME280;62652;42.274;-71.436;2023-03-05T02:11:00;100680.0;;;0.777777777777777;unknown
64862;BME280;62652;42.274;-71.436;2023-03-05T02:12:01;100680.0;;;0.777777777777777;unknown
64862;BME280;62652;42.274;-71.436;2023-03-05T02:13:04;100680.0;;;0.777777777777777;unknown
64862;BME280;62652;42.274;-71.436;2023-03-05T02:14:01;100680.0;;;0.777777777777777;unknown
64862;BME280;62652;42.274;-71.436;2023-03-05T02:15:01;100690.0;;;0.777777777777777;unknown
64862;BME280;62652;42.274;-71.436;2023-03-05T02:16:01;100690.0;;;0.777777777777777;unknown
64862;BME280;62652;42.274;-71.436;2023-03-05T02:17:01;100690.0;;;0.777777777777777;unknown
64862;BME280;62652;42.274;-71.436;2023-03-05T02:18:01;100700.0;;;0.777777777777777;unknown
64862;BME280;62652;42.274;-71.436;2023-03-05T02:19:01;100700.0;;;0.8888888888888897;unknown
64862;BME280;62652;42.274;-71.436;2023-03-05T02:20:04;100700.0;;;0.8888888888888897;unknown
64862;BME280;62652;42.274;-71.436;2023-03-05T02:21:03;100710.0;;;0.8888888888888897;unknown
64862;BME280;62652;42.274;-71.436;2023-03-05T02:22:00;100710.0;;;0.8888888888888897;unknown
64862;BME280;62652;42.274;-71.436;2023-03-05T02:23:00;100710.0;;;0.8888888888888897;unknown
64862;BME280;62652;42.274;-71.436;2023-03-05T02:24:01;100700.0;;;0.8888888888888897;unknown
64862;BME280;62652;42.274;-71.436;2023-03-05T02:25:00;100700.0;;;0.8888888888888897;unknown
64862;BME280;62652;42.274;-71.436;2023-03-05T02:26:01;100710.0;;;0.8888888888888897;unknown
64862;BME280;62652;42.274;-71.436;2023-03-05T02:27:02;100710.0;;;0.8888888888888897;unknown
64862;BME280;62652;42.274;-71.436;2023-03-05T02:28:04;100710.0;;;0.8888888888888897;unknown
64862;BME280;62652;42.274;-71.436;2023-03-05T02:29:02;100710.0;;;0.8888888888888897;unknown
64862;BME280;62652;42.274;-71.436;2023-03-05T02:30:02;100710.0;;;0.777777777777777;unknown
64862;BME280;62652;42.274;-71.436;2023-03-05T02:31:00;100720.0;;;0.777777777777777;unknown
64862;BME280;62652;42.274;-71.436;2023-03-05T02:32:01;100720.0;;;0.777777777777777;unknown
64862;BME280;62652;42.274;-71.436;2023-03-05T02:33:01;100720.0;;;0.777777777777777;unknown
64862;BME280;62652;42.274;-71.436;2023-03-05T02:34:01;100720.0;;;0.777777777777777;unknown
64862;BME280;62652;42.274;-71.436;2023-03-05T02:35:00;100720.0;;;0.777777777777777;unknown
64862;BME280;62652;42.274;-71.436;2023-03-05T02:36:01;100720.0;;;0.7222222222222207;unknown
64862;BME280;62652;42.274;-71.436;2023-03-05T02:37:01;100720.0;;;0.7222222222222207;unknown
64862;BME280;62652;42.274;-71.436;2023-03-05T02:38:01;100720.0;;;0.7222222222222207;unknown
64862;BME280;62652;42.274;-71.436;2023-03-05T02:39:01;100730.0;;;0.777777777777777;unknown
64862;BME280;62652;42.274;-71.436;2023-03-05T02:40:01;100740.0;;;0.777777777777777;unknown
64862;BME280;62652;42.274;-71.436;2023-03-05T02:41:01;100740.0;;;0.7222222222222207;unknown
64862;BME280;62652;42.274;-71.436;2023-03-05T02:42:01;100740.0;;;0.7222222222222207;unknown
64862;BME280;62652;42.274;-71.436;2023-03-05T02:43:01;100740.0;;;0.777777777777777;unknown
64862;BME280;62652;42.274;-71.436;2023-03-05T02:44:01;100730.0;;;0.777777777777777;unknown
64862;BME280;62652;42.274;-71.436;2023-03-05T02:45:01;100730.0;;;0.777777777777777;unknown
64862;BME280;62652;42.274;-71.436;2023-03-05T02:46:01;100740.0;;;0.7222222222222207;unknown
64862;BME280;62652;42.274;-71.436;2023-03-05T02:47:02;100730.0;;;0.7222222222222207;unknown
64862;BME280;62652;42.274;-71.436;2023-03-05T02:48:01;100730.0;;;0.7222222222222207;unknown
64862;BME280;62652;42.274;-71.436;2023-03-05T02:49:01;100730.0;;;0.7222222222222207;unknown
64862;BME280;62652;42.274;-71.436;2023-03-05T02:50:01;100730.0;;;0.7222222222222207;unknown
64862;BME280;62652;42.274;-71.436;2023-03-05T02:51:01;100730.0;;;0.777777777777777;unknown
64862;BME280;62652;42.274;-71.436;2023-03-05T02:52:01;100740.0;;;0.777777777777777;unknown
64862;BME280;62652;42.274;-71.436;2023-03-05T02:53:00;100740.0;;;0.7222222222222207;unknown
64862;BME280;62652;42.274;-71.436;2023-03-05T02:54:01;100740.0;;;0.7222222222222207;unknown
64862;BME280;62652;42.274;-71.436;2023-03-05T02:55:01;100740.0;;;0.7222222222222207;unknown
64862;BME280;62652;42.274;-71.436;2023-03-05T02:56:01;100740.0;;;0.7222222222222207;unknown
64862;BME280;62652;42.274;-71.436;2023-03-05T02:57:01;100740.0;;;0.6111111111111119;unknown
64862;BME280;62652;42.274;-71.436;2023-03-05T02:58:01;100750.0;;;0.6111111111111119;unknown
64862;BME280;62652;42.274;-71.436;2023-03-05T02:59:00;100750.0;;;0.7222222222222207;unknown
64862;BME280;62652;42.274;-71.436;2023-03-05T03:00:00;100750.0;;;0.7222222222222207;unknown
64862;BME280;62652;42.274;-71.436;2023-03-05T03:01:00;100750.0;;;0.6111111111111119;unknown
64862;BME280;62652;42.274;-71.436;2023-03-05T03:02:01;100760.0;;;0.6111111111111119;unknown
64862;BME280;62652;42.274;-71.436;2023-03-05T03:03:01;100760.0;;;0.6111111111111119;unknown
64862;BME280;62652;42.274;-71.436;2023-03-05T03:04:01;100760.0;;;0.7222222222222207;unknown
64862;BME280;62652;42.274;-71.436;2023-03-05T03:05:01;100760.0;;;0.7222222222222207;unknown
64862;BME280;62652;42.274;-71.436;2023-03-05T03:06:00;100770.0;;;0.7222222222222207;unknown
64862;BME280;62652;42.274;-71.436;2023-03-05T03:07:00;100770.0;;;0.7222222222222207;unknown
64862;BME280;62652;42.274;-71.436;2023-03-05T03:08:01;100770.0;;;0.7222222222222207;unknown
64862;BME280;62652;42.274;-71.436;2023-03-05T03:09:01;100770.0;;;0.7222222222222207;unknown
64862;BME280;62652;42.274;-71.436;2023-03-05T03:10:01;100780.0;;;0.7222222222222207;unknown
64862;BME280;62652;42.274;-71.436;2023-03-05T03:11:05;100780.0;;;0.7222222222222207;unknown
64862;BME280;62652;42.274;-71.436;2023-03-05T03:12:01;100790.0;;;0.7222222222222207;unknown
64862;BME280;62652;42.274;-71.436;2023-03-05T03:13:01;100780.0;;;0.7222222222222207;unknown
64862;BME280;62652;42.274;-71.436;2023-03-05T03:14:01;100790.0;;;0.7222222222222207;unknown
64862;BME280;62652;42.274;-71.436;2023-03-05T03:15:01;100790.0;;;0.6111111111111119;unknown
64862;BME280;62652;42.274;-71.436;2023-03-05T03:16:02;100790.0;;;0.6111111111111119;unknown
64862;BME280;62652;42.274;-71.436;2023-03-05T03:17:00;100800.0;;;0.6111111111111119;unknown
64862;BME280;62652;42.274;-71.436;2023-03-05T03:18:00;100800.0;;;0.6111111111111119;unknown
64862;BME280;62652;42.274;-71.436;2023-03-05T03:19:01;100800.0;;;0.6111111111111119;unknown
64862;BME280;62652;42.274;-71.436;2023-03-05T03:20:02;100800.0;;;0.6111111111111119;unknown
64862;BME280;62652;42.274;-71.436;2023-03-05T03:21:01;100800.0;;;0.6111111111111119;unknown
64862;BME280;62652;42.274;-71.436;2023-03-05T03:22:00;100800.0;;;0.6111111111111119;unknown
64862;BME280;62652;42.274;-71.436;2023-03-05T03:23:01;100800.0;;;0.6111111111111119;unknown
64862;BME280;62652;42.274;-71.436;2023-03-05T03:24:01;100800.0;;;0.6111111111111119;unknown
64862;BME280;62652;42.274;-71.436;2023-03-05T03:25:00;100800.0;;;0.6111111111111119;unknown
64862;BME280;62652;42.274;-71.436;2023-03-05T03:26:01;100810.0;;;0.6111111111111119;unknown
64862;BME280;62652;42.274;-71.436;2023-03-05T03:27:01;100810.0;;;0.4999999999999992;unknown
64862;BME280;62652;42.274;-71.436;2023-03-05T03:28:01;100810.0;;;0.6111111111111119;unknown
64862;BME280;62652;42.274;-71.436;2023-03-05T03:29:01;100820.0;;;0.6111111111111119;unknown
64862;BME280;62652;42.274;-71.436;2023-03-05T03:30:01;100820.0;;;0.4999999999999992;unknown
64862;BME280;62652;42.274;-71.436;2023-03-05T03:31:00;100820.0;;;0.4999999999999992;unknown
64862;BME280;62652;42.274;-71.436;2023-03-05T03:32:00;100820.0;;;0.4999999999999992;unknown
64862;BME280;62652;42.274;-71.436;2023-03-05T03:33:00;100820.0;;;0.4999999999999992;unknown
64862;BME280;62652;42.274;-71.436;2023-03-05T03:34:00;100820.0;;;0.4999999999999992;unknown
64862;BME280;62652;42.274;-71.436;2023-03-05T03:35:01;100830.0;;;0.4999999999999992;unknown
64862;BME280;62652;42.274;-71.436;2023-03-05T03:36:01;100830.0;;;0.4999999999999992;unknown
64862;BME280;62652;42.274;-71.436;2023-03-05T03:37:00;100830.0;;;0.4999999999999992;unknown
64862;BME280;62652;42.274;-71.436;2023-03-05T03:38:00;100830.0;;;0.4999999999999992;unknown
64862;BME280;62652;42.274;-71.436;2023-03-05T03:39:00;100830.0;;;0.4999999999999992;unknown
64862;BME280;62652;42.274;-71.436;2023-03-05T03:40:01;100830.0;;;0.4999999999999992;unknown
64862;BME280;62652;42.274;-71.436;2023-03-05T03:41:01;100830.0;;;0.4999999999999992;unknown
64862;BME280;62652;42.274;-71.436;2023-03-05T03:42:00;100840.0;;;0.4999999999999992;unknown
64862;BME280;62652;42.274;-71.436;2023-03-05T03:43:00;100840.0;;;0.4999999999999992;unknown
64862;BME280;62652;42.274;-71.436;2023-03-05T03:44:00;100840.0;;;0.4999999999999992;unknown
64862;BME280;62652;42.274;-71.436;2023-03-05T03:45:01;100840.0;;;0.4999999999999992;unknown
64862;BME280;62652;42.274;-71.436;2023-03-05T03:46:02;100840.0;;;0.4999999999999992;unknown
64862;BME280;62652;42.274;-71.436;2023-03-05T03:47:01;100850.0;;;0.4999999999999992;unknown
64862;BME280;62652;42.274;-71.436;2023-03-05T03:48:01;100850.0;;;0.4999999999999992;unknown
64862;BME280;62652;42.274;-71.436;2023-03-05T03:49:00;100850.0;;;0.4999999999999992;unknown
64862;BME280;62652;42.274;-71.436;2023-03-05T03:50:01;100850.0;;;0.4999999999999992;unknown
64862;BME280;62652;42.274;-71.436;2023-03-05T03:51:04;100850.0;;;0.4999999999999992;unknown
64862;BME280;62652;42.274;-71.436;2023-03-05T03:52:01;100850.0;;;0.4999999999999992;unknown
64862;BME280;62652;42.274;-71.436;2023-03-05T03:53:01;100850.0;;;0.4999999999999992;unknown
64862;BME280;62652;42.274;-71.436;2023-03-05T03:54:01;100850.0;;;0.4999999999999992;unknown
64862;BME280;62652;42.274;-71.436;2023-03-05T03:55:01;100850.0;;;0.4999999999999992;unknown
64862;BME280;62652;42.274;-71.436;2023-03-05T03:56:00;100850.0;;;0.4999999999999992;unknown
64862;BME280;62652;42.274;-71.436;2023-03-05T03:57:00;100850.0;;;0.4999999999999992;unknown
64862;BME280;62652;42.274;-71.436;2023-03-05T03:58:00;100850.0;;;0.4999999999999992;unknown
64862;BME280;62652;42.274;-71.436;2023-03-05T03:59:01;100850.0;;;0.4999999999999992;unknown
64862;BME280;62652;42.274;-71.436;2023-03-05T04:00:01;100850.0;;;0.4999999999999992;unknown
64862;BME280;62652;42.274;-71.436;2023-03-05T04:01:01;100850.0;;;0.4999999999999992;unknown
64862;BME280;62652;42.274;-71.436;2023-03-05T04:02:00;100840.0;;;0.4999999999999992;unknown
64862;BME280;62652;42.274;-71.436;2023-03-05T04:03:01;100850.0;;;0.4999999999999992;unknown
64862;BME280;62652;42.274;-71.436;2023-03-05T04:04:01;100840.0;;;0.4999999999999992;unknown
64862;BME280;62652;42.274;-71.436;2023-03-05T04:05:01;100840.0;;;0.4999999999999992;unknown
64862;BME280;62652;42.274;-71.436;2023-03-05T04:06:00;100840.0;;;0.4999999999999992;unknown
64862;BME280;62652;42.274;-71.436;2023-03-05T04:07:00;100840.0;;;0.4999999999999992;unknown
64862;BME280;62652;42.274;-71.436;2023-03-05T04:08:00;100840.0;;;0.6111111111111119;unknown
64862;BME280;62652;42.274;-71.436;2023-03-05T04:09:00;100840.0;;;0.4999999999999992;unknown
64862;BME280;62652;42.274;-71.436;2023-03-05T04:10:01;100840.0;;;0.4999999999999992;unknown
64862;BME280;62652;42.274;-71.436;2023-03-05T04:11:01;100840.0;;;0.4999999999999992;unknown
64862;BME280;62652;42.274;-71.436;2023-03-05T04:12:00;100840.0;;;0.4999999999999992;unknown
64862;BME280;62652;42.274;-71.436;2023-03-05T04:13:00;100840.0;;;0.38888888888889045;unknown
64862;BME280;62652;42.274;-71.436;2023-03-05T04:14:01;100840.0;;;0.38888888888889045;unknown
64862;BME280;62652;42.274;-71.436;2023-03-05T04:15:00;100850.0;;;0.38888888888889045;unknown
64862;BME280;62652;42.274;-71.436;2023-03-05T04:16:01;100850.0;;;0.38888888888889045;unknown
64862;BME280;62652;42.274;-71.436;2023-03-05T04:17:00;100850.0;;;0.38888888888889045;unknown
64862;BME280;62652;42.274;-71.436;2023-03-05T04:18:00;100850.0;;;0.38888888888889045;unknown
64862;BME280;62652;42.274;-71.436;2023-03-05T04:19:01;100850.0;;;0.38888888888889045;unknown
64862;BME280;62652;42.274;-71.436;2023-03-05T04:20:01;100860.0;;;0.2777777777777778;unknown